createdAt,value
2022-12-01T00:00:20.295Z,101311.41
2022-12-01T00:03:23.100Z,101323.97
2022-12-01T00:06:25.556Z,101308.47
2022-12-01T00:09:46.393Z,101322.41
2022-12-01T00:12:48.979Z,101314.72
2022-12-01T00:15:51.379Z,101339.41
2022-12-01T00:18:53.847Z,101346.75
2022-12-01T00:21:56.400Z,101323.09
2022-12-01T00:24:58.805Z,101333.56
2022-12-01T00:28:01.202Z,101338.41
2022-12-01T00:31:08.149Z,101322.88
2022-12-01T00:34:24.952Z,101315.47
2022-12-01T00:37:29.828Z,101314.75
2022-12-01T00:40:32.304Z,101322.75
2022-12-01T00:43:34.955Z,101301.97
2022-12-01T00:46:37.471Z,101299.50
2022-12-01T00:49:40.195Z,101319.91
2022-12-01T00:52:42.697Z,101311.34
2022-12-01T00:55:45.205Z,101307.56
2022-12-01T00:58:47.936Z,101297.84
2022-12-01T01:01:50.442Z,101319.44
2022-12-01T01:04:53.586Z,101308.94
2022-12-01T01:07:56.009Z,101310.25
2022-12-01T01:11:00.187Z,101299.72
2022-12-01T01:14:03.045Z,101297.28
2022-12-01T01:17:05.898Z,101294.59
2022-12-01T01:20:09.124Z,101285.34
2022-12-01T01:23:11.595Z,101287.16
2022-12-01T01:26:17.153Z,101301.16
2022-12-01T01:29:20.091Z,101285.31
2022-12-01T01:32:22.474Z,101301.47
2022-12-01T01:35:24.924Z,101304.19
2022-12-01T01:38:28.477Z,101297.84
2022-12-01T01:41:30.953Z,101298.53
2022-12-01T01:44:56.310Z,101308.44
2022-12-01T01:47:59.902Z,101299.56
2022-12-01T01:51:02.584Z,101289.53
2022-12-01T01:54:08.646Z,101291.38
2022-12-01T01:57:12.472Z,101284.19
2022-12-01T02:00:18.193Z,101283.13
2022-12-01T02:03:20.919Z,101288.13
2022-12-01T02:06:24.636Z,101276.72
2022-12-01T02:09:27.672Z,101291.75
2022-12-01T02:13:15.996Z,101272.94
2022-12-01T02:16:35.935Z,101264.63
2022-12-01T02:20:02.649Z,101271.44
2022-12-01T02:23:26.589Z,101277.50
2022-12-01T02:26:39.764Z,101283.84
2022-12-01T02:30:00.671Z,101291.69
2022-12-01T02:33:24.225Z,101283.38
2022-12-01T02:36:37.459Z,101285.34
2022-12-01T02:40:02.063Z,101282.34
2022-12-01T02:43:08.080Z,101289.94
2022-12-01T02:46:32.549Z,101291.22
2022-12-01T02:49:37.497Z,101299.25
2022-12-01T02:52:40.588Z,101283.06
2022-12-01T02:55:52.021Z,101296.66
2022-12-01T02:58:54.579Z,101279.81
2022-12-01T03:02:00.210Z,101296.81
2022-12-01T03:05:05.637Z,101292.63
2022-12-01T03:08:19.587Z,101304.09
2022-12-01T03:11:28.924Z,101299.72
2022-12-01T03:14:51.085Z,101288.53
2022-12-01T03:17:59.374Z,101305.59
2022-12-01T03:21:09.761Z,101315.06
2022-12-01T03:24:17.581Z,101312.84
2022-12-01T03:27:23.091Z,101298.94
2022-12-01T03:30:26.199Z,101312.63
2022-12-01T03:33:35.953Z,101310.00
2022-12-01T03:36:48.406Z,101313.28
2022-12-01T03:39:55.868Z,101290.34
2022-12-01T03:43:03.951Z,101293.59
2022-12-01T03:46:41.168Z,101303.09
2022-12-01T03:49:45.272Z,101296.19
2022-12-01T03:52:58.583Z,101293.72
2022-12-01T03:56:03.555Z,101288.53
2022-12-01T03:59:07.558Z,101295.16
2022-12-01T04:02:10.125Z,101294.63
2022-12-01T04:05:12.875Z,101290.06
2022-12-01T04:08:15.290Z,101290.88
2022-12-01T04:11:36.136Z,101297.47
2022-12-01T04:14:38.626Z,101278.16
2022-12-01T04:17:45.115Z,101266.28
2022-12-01T04:20:50.651Z,101279.94
2022-12-01T04:24:02.074Z,101294.16
2022-12-01T04:27:04.497Z,101283.41
2022-12-01T04:30:08.041Z,101288.28
2022-12-01T04:33:10.425Z,101282.59
2022-12-01T04:36:12.808Z,101288.75
2022-12-01T04:39:15.294Z,101286.34
2022-12-01T04:42:17.720Z,101287.28
2022-12-01T04:45:20.127Z,101286.47
2022-12-01T04:48:22.574Z,101264.91
2022-12-01T04:51:25.002Z,101272.84
2022-12-01T04:54:27.541Z,101272.38
2022-12-01T04:57:29.960Z,101254.63
2022-12-01T05:00:33.511Z,101293.28
2022-12-01T05:03:38.218Z,101270.19
2022-12-01T05:06:41.187Z,101289.47
2022-12-01T05:09:43.699Z,101298.50
2022-12-01T05:12:46.405Z,101280.75
2022-12-01T05:15:49.046Z,101275.78
2022-12-01T05:19:16.557Z,101282.91
2022-12-01T05:22:31.486Z,101288.81
2022-12-01T05:25:42.502Z,101273.19
2022-12-01T05:28:44.937Z,101294.44
2022-12-01T05:31:47.541Z,101282.56
2022-12-01T05:34:50.123Z,101295.59
2022-12-01T05:37:52.594Z,101281.84
2022-12-01T05:40:56.046Z,101292.66
2022-12-01T05:43:58.525Z,101297.03
2022-12-01T05:47:00.982Z,101302.75
2022-12-01T05:50:05.903Z,101296.66
2022-12-01T05:53:11.299Z,101317.22
2022-12-01T05:56:13.793Z,101309.09
2022-12-01T05:59:16.274Z,101303.22
2022-12-01T06:02:18.933Z,101302.53
2022-12-01T06:05:21.444Z,101297.34
2022-12-01T06:08:24.025Z,101295.28
2022-12-01T06:11:26.471Z,101290.66
2022-12-01T06:14:28.951Z,101319.28
2022-12-01T06:17:34.584Z,101306.28
2022-12-01T06:20:39.426Z,101308.00
2022-12-01T06:23:41.918Z,101305.81
2022-12-01T06:26:44.271Z,101319.75
2022-12-01T06:29:46.711Z,101304.56
2022-12-01T06:32:49.184Z,101310.25
2022-12-01T06:35:59.184Z,101319.38
2022-12-01T06:39:01.575Z,101306.97
2022-12-01T06:42:04.052Z,101314.53
2022-12-01T06:45:06.898Z,101302.88
2022-12-01T06:48:09.523Z,101318.00
2022-12-01T06:51:11.942Z,101316.75
2022-12-01T06:54:15.249Z,101305.78
2022-12-01T06:57:17.633Z,101304.94
2022-12-01T07:00:20.601Z,101317.69
2022-12-01T07:03:23.145Z,101315.63
2022-12-01T07:06:25.704Z,101328.97
2022-12-01T07:09:28.136Z,101328.47
2022-12-01T07:12:31.828Z,101317.00
2022-12-01T07:15:34.227Z,101302.25
2022-12-01T07:18:37.418Z,101304.69
2022-12-01T07:21:46.467Z,101326.84
2022-12-01T07:24:48.900Z,101332.56
2022-12-01T07:27:51.384Z,101317.31
2022-12-01T07:30:53.775Z,101333.53
2022-12-01T07:33:57.501Z,101329.78
2022-12-01T07:36:59.905Z,101322.44
2022-12-01T07:40:02.456Z,101327.16
2022-12-01T07:43:05.114Z,101309.75
2022-12-01T07:46:22.813Z,101326.63
2022-12-01T07:49:26.349Z,101317.53
2022-12-01T07:52:28.910Z,101306.91
2022-12-01T07:55:31.312Z,101321.78
2022-12-01T07:58:34.096Z,101306.94
2022-12-01T08:01:39.257Z,101322.56
2022-12-01T08:04:45.458Z,101320.34
2022-12-01T08:07:48.037Z,101313.25
2022-12-01T08:10:50.755Z,101305.50
2022-12-01T08:13:53.508Z,101308.63
2022-12-01T08:16:55.916Z,101309.50
2022-12-01T08:19:58.717Z,101318.53
2022-12-01T08:23:01.795Z,101309.13
2022-12-01T08:26:06.667Z,101321.50
2022-12-01T08:29:09.324Z,101324.97
2022-12-01T08:32:11.916Z,101317.34
2022-12-01T08:35:15.385Z,101325.75
2022-12-01T08:38:18.164Z,101340.53
2022-12-01T08:41:21.652Z,101331.09
2022-12-01T08:44:24.088Z,101341.13
2022-12-01T08:47:28.902Z,101313.31
2022-12-01T08:50:31.583Z,101346.72
2022-12-01T08:53:35.511Z,101341.25
2022-12-01T08:56:43.317Z,101329.66
2022-12-01T08:59:45.832Z,101342.28
2022-12-01T09:02:49.471Z,101336.22
2022-12-01T09:05:51.960Z,101328.63
2022-12-01T09:08:54.363Z,101318.13
2022-12-01T09:11:57.261Z,101338.63
2022-12-01T09:15:02.193Z,101332.06
2022-12-01T09:18:04.936Z,101325.75
2022-12-01T09:21:24.028Z,101320.22
2022-12-01T09:24:27.384Z,101316.81
2022-12-01T09:27:29.800Z,101320.19
2022-12-01T09:30:32.283Z,101266.09
2022-12-01T09:33:35.000Z,101292.28
2022-12-01T09:36:38.155Z,101270.94
2022-12-01T09:39:40.601Z,101304.00
2022-12-01T09:42:44.611Z,101298.19
2022-12-01T09:45:50.625Z,101296.09
2022-12-01T09:48:54.341Z,101291.59
2022-12-01T09:51:56.745Z,101281.59
2022-12-01T09:55:00.408Z,101282.09
2022-12-01T09:58:04.496Z,101255.28
2022-12-01T10:01:15.692Z,101282.75
2022-12-01T10:04:31.095Z,101278.22
2022-12-01T10:07:40.319Z,101263.78
2022-12-01T10:10:46.432Z,101253.50
2022-12-01T10:13:48.908Z,101259.84
2022-12-01T10:17:03.971Z,101270.56
2022-12-01T10:20:13.357Z,101251.94
2022-12-01T10:23:43.844Z,101249.88
2022-12-01T10:26:52.328Z,101223.88
2022-12-01T10:29:58.907Z,101258.25
2022-12-01T10:33:24.274Z,101243.69
2022-12-01T10:36:27.668Z,101225.56
2022-12-01T10:39:40.250Z,101239.75
2022-12-01T10:42:48.316Z,101239.22
2022-12-01T10:45:51.111Z,101234.75
2022-12-01T10:48:58.918Z,101221.72
2022-12-01T10:52:01.891Z,101233.22
2022-12-01T10:55:26.493Z,101230.25
2022-12-01T10:58:31.924Z,101228.50
2022-12-01T11:01:35.933Z,101227.78
2022-12-01T11:04:56.236Z,101210.56
2022-12-01T11:07:59.122Z,101222.41
2022-12-01T11:11:01.840Z,101202.38
2022-12-01T11:14:17.980Z,101205.25
2022-12-01T11:17:26.282Z,101219.25
2022-12-01T11:20:39.688Z,101198.59
2022-12-01T11:23:50.665Z,101194.44
2022-12-01T11:26:53.370Z,101200.09
2022-12-01T11:29:58.292Z,101206.66
2022-12-01T11:33:02.991Z,101220.38
2022-12-01T11:36:11.838Z,101212.34
2022-12-01T11:39:44.443Z,101215.22
2022-12-01T11:42:55.814Z,101212.16
2022-12-01T11:46:00.772Z,101199.22
2022-12-01T11:49:04.055Z,101198.38
2022-12-01T11:52:28.099Z,101198.78
2022-12-01T11:55:31.696Z,101208.22
2022-12-01T11:58:34.149Z,101193.16
2022-12-01T12:01:49.458Z,101193.78
2022-12-01T12:05:03.343Z,101218.94
2022-12-01T12:08:18.102Z,101214.13
2022-12-01T12:11:49.674Z,101215.25
2022-12-01T12:15:29.835Z,101216.59
2022-12-01T12:19:07.905Z,101208.25
2022-12-01T12:22:19.335Z,101216.41
2022-12-01T12:25:30.957Z,101217.97
2022-12-01T12:29:13.950Z,101216.53
2022-12-01T12:32:28.502Z,101208.41
2022-12-01T12:36:02.414Z,101213.44
2022-12-01T12:39:24.493Z,101193.75
2022-12-01T12:42:53.055Z,101198.13
2022-12-01T12:46:07.809Z,101197.84
2022-12-01T12:49:20.709Z,101200.69
2022-12-01T12:52:26.857Z,101205.28
2022-12-01T12:56:05.516Z,101188.41
2022-12-01T12:59:12.057Z,101203.06
2022-12-01T13:02:20.653Z,101188.53
2022-12-01T13:05:36.266Z,101196.09
2022-12-01T13:08:44.371Z,101174.97
2022-12-01T13:12:22.217Z,101210.03
2022-12-01T13:15:25.195Z,101188.44
2022-12-01T13:18:44.023Z,101214.56
2022-12-01T13:21:48.893Z,101187.47
2022-12-01T13:24:52.312Z,101206.06
2022-12-01T13:27:55.591Z,101198.56
2022-12-01T13:31:00.352Z,101200.19
2022-12-01T13:34:05.421Z,101208.06
2022-12-01T13:37:09.227Z,101203.47
2022-12-01T13:40:25.199Z,101215.69
2022-12-01T13:43:27.619Z,101205.22
2022-12-01T13:46:51.334Z,101206.59
2022-12-01T13:49:53.976Z,101206.91
2022-12-01T13:53:12.561Z,101184.69
2022-12-01T13:56:17.939Z,101203.13
2022-12-01T14:00:02.845Z,101206.06
2022-12-01T14:03:17.637Z,101210.50
2022-12-01T14:06:41.066Z,101198.66
2022-12-01T14:09:44.239Z,101208.34
2022-12-01T14:12:46.900Z,101215.56
2022-12-01T14:15:57.299Z,101213.75
2022-12-01T14:18:59.738Z,101215.66
2022-12-01T14:22:04.448Z,101214.78
2022-12-01T14:25:22.652Z,101212.09
2022-12-01T14:29:10.889Z,101219.28
2022-12-01T14:32:16.301Z,101228.53
2022-12-01T14:35:18.906Z,101223.31
2022-12-01T14:38:22.189Z,101223.06
2022-12-01T14:41:30.771Z,101204.69
2022-12-01T14:44:33.239Z,101216.00
2022-12-01T14:47:42.645Z,101213.88
2022-12-01T14:50:51.476Z,101216.50
2022-12-01T14:53:55.047Z,101222.78
2022-12-01T14:57:04.459Z,101200.19
2022-12-01T15:00:19.656Z,101219.63
2022-12-01T15:03:25.386Z,101214.09
2022-12-01T15:06:31.751Z,101213.28
2022-12-01T15:09:35.151Z,101198.59
2022-12-01T15:12:38.063Z,101206.94
2022-12-01T15:15:53.735Z,101206.94
2022-12-01T15:18:58.611Z,101211.41
2022-12-01T15:22:05.753Z,101202.44
2022-12-01T15:25:13.852Z,101200.59
2022-12-01T15:28:19.706Z,101208.22
2022-12-01T15:31:22.143Z,101187.44
2022-12-01T15:34:39.414Z,101201.09
2022-12-01T15:37:45.269Z,101201.94
2022-12-01T15:44:20.849Z,101181.69
2022-12-01T15:47:37.807Z,101208.44
2022-12-01T15:50:46.138Z,101201.88
2022-12-01T15:53:54.749Z,101193.94
2022-12-01T15:56:59.100Z,101204.19
2022-12-01T16:00:01.645Z,101199.19
2022-12-01T16:03:04.311Z,101197.34
2022-12-01T16:06:11.697Z,101207.84
2022-12-01T16:09:26.253Z,101218.88
2022-12-01T16:12:33.045Z,101208.34
2022-12-01T16:15:42.862Z,101218.78
2022-12-01T16:18:53.230Z,101205.38
2022-12-01T16:22:04.730Z,101220.34
2022-12-01T16:25:38.382Z,101221.28
2022-12-01T16:28:40.823Z,101201.28
2022-12-01T16:32:05.130Z,101208.34
2022-12-01T16:35:07.625Z,101200.50
2022-12-01T16:38:25.104Z,101187.09
2022-12-01T16:41:37.695Z,101219.84
2022-12-01T16:44:41.867Z,101221.53
2022-12-01T16:47:46.191Z,101214.38
2022-12-01T16:50:49.891Z,101204.09
2022-12-01T16:53:52.725Z,101212.44
2022-12-01T16:56:55.381Z,101203.97
2022-12-01T16:59:57.913Z,101192.06
2022-12-01T17:03:00.836Z,101223.88
2022-12-01T17:06:04.068Z,101227.25
2022-12-01T17:09:06.510Z,101223.72
2022-12-01T17:12:08.959Z,101217.84
2022-12-01T17:15:12.099Z,101212.56
2022-12-01T17:18:16.435Z,101223.19
2022-12-01T17:21:18.950Z,101231.78
2022-12-01T17:24:21.413Z,101240.53
2022-12-01T17:27:25.215Z,101209.84
2022-12-01T17:30:27.853Z,101222.97
2022-12-01T17:33:30.621Z,101234.47
2022-12-01T17:36:33.146Z,101237.16
2022-12-01T17:39:37.076Z,101232.88
2022-12-01T17:42:39.669Z,101240.47
2022-12-01T17:45:43.043Z,101226.53
2022-12-01T17:48:46.494Z,101233.00
2022-12-01T17:51:49.197Z,101215.00
2022-12-01T17:54:51.923Z,101212.88
2022-12-01T17:57:54.842Z,101210.59
2022-12-01T18:00:57.253Z,101219.72
2022-12-01T18:03:59.738Z,101234.38
2022-12-01T18:07:02.155Z,101230.75
2022-12-01T18:10:05.269Z,101215.91
2022-12-01T18:13:07.983Z,101227.53
2022-12-01T18:16:19.661Z,101226.63
2022-12-01T18:19:22.233Z,101218.47
2022-12-01T18:22:24.610Z,101214.63
2022-12-01T18:25:27.308Z,101236.19
2022-12-01T18:28:29.925Z,101223.72
2022-12-01T18:31:33.203Z,101241.34
2022-12-01T18:34:35.765Z,101233.94
2022-12-01T18:37:40.380Z,101235.50
2022-12-01T18:40:43.230Z,101241.19
2022-12-01T18:43:45.881Z,101236.16
2022-12-01T18:46:48.624Z,101222.72
2022-12-01T18:49:51.364Z,101228.00
2022-12-01T18:52:53.788Z,101245.63
2022-12-01T18:55:57.026Z,101246.44
2022-12-01T18:59:01.951Z,101235.44
2022-12-01T19:02:04.764Z,101254.59
2022-12-01T19:05:07.697Z,101253.81
2022-12-01T19:08:10.588Z,101263.63
2022-12-01T19:11:13.753Z,101262.50
2022-12-01T19:14:18.167Z,101230.72
2022-12-01T19:17:21.875Z,101219.03
2022-12-01T19:20:24.602Z,101224.13
2022-12-01T19:23:27.674Z,101250.31
2022-12-01T19:26:30.377Z,101254.56
2022-12-01T19:29:33.081Z,101254.56
2022-12-01T19:32:36.485Z,101258.13
2022-12-01T19:35:39.104Z,101240.28
2022-12-01T19:38:41.892Z,101261.16
2022-12-01T19:41:44.688Z,101236.09
2022-12-01T19:44:47.639Z,101244.69
2022-12-01T19:47:51.575Z,101261.31
2022-12-01T19:50:54.405Z,101265.28
2022-12-01T19:53:57.534Z,101270.97
2022-12-01T19:57:00.005Z,101266.59
2022-12-01T20:00:02.952Z,101250.16
2022-12-01T20:03:14.660Z,101253.09
2022-12-01T20:06:22.514Z,101271.19
2022-12-01T20:09:25.804Z,101256.09
2022-12-01T20:12:28.607Z,101259.50
2022-12-01T20:15:32.780Z,101252.06
2022-12-01T20:18:36.299Z,101271.03
2022-12-01T20:21:42.534Z,101266.28
2022-12-01T20:24:45.363Z,101257.34
2022-12-01T20:27:47.757Z,101254.34
2022-12-01T20:30:50.260Z,101268.19
2022-12-01T20:33:56.189Z,101270.19
2022-12-01T20:36:59.267Z,101268.09
2022-12-01T20:40:02.084Z,101267.25
2022-12-01T20:43:04.924Z,101256.81
2022-12-01T20:46:07.836Z,101257.03
2022-12-01T20:49:11.241Z,101266.38
2022-12-01T20:52:13.947Z,101262.97
2022-12-01T20:55:16.857Z,101263.19
2022-12-01T20:58:19.657Z,101259.78
2022-12-01T21:01:22.795Z,101259.16
2022-12-01T21:04:25.399Z,101265.66
2022-12-01T21:07:27.865Z,101277.34
2022-12-01T21:10:30.348Z,101268.31
2022-12-01T21:13:39.552Z,101286.34
2022-12-01T21:16:48.117Z,101280.97
2022-12-01T21:20:07.082Z,101279.88
2022-12-01T21:23:15.072Z,101272.47
2022-12-01T21:26:18.991Z,101278.16
2022-12-01T21:29:27.867Z,101293.34
2022-12-01T21:32:32.245Z,101288.19
2022-12-01T21:35:34.758Z,101269.78
2022-12-01T21:38:37.455Z,101288.34
2022-12-01T21:41:40.784Z,101282.41
2022-12-01T21:44:43.356Z,101295.88
2022-12-01T21:47:45.805Z,101283.38
2022-12-01T21:50:53.791Z,101296.28
2022-12-01T21:53:56.759Z,101297.53
2022-12-01T21:56:59.199Z,101300.13
2022-12-01T22:00:33.699Z,101290.94
2022-12-01T22:03:40.089Z,101302.34
2022-12-01T22:06:45.435Z,101302.34
2022-12-01T22:09:54.614Z,101291.38
2022-12-01T22:12:57.032Z,101296.97
2022-12-01T22:15:59.577Z,101293.31
2022-12-01T22:19:20.240Z,101312.69
2022-12-01T22:22:25.159Z,101270.06
2022-12-01T22:25:28.458Z,101297.38
2022-12-01T22:28:31.219Z,101287.50
2022-12-01T22:31:34.202Z,101296.00
2022-12-01T22:34:36.822Z,101282.50
2022-12-01T22:37:50.181Z,101300.31
2022-12-01T22:41:14.462Z,101296.34
2022-12-01T22:44:17.280Z,101285.50
2022-12-01T22:47:19.734Z,101258.13
2022-12-01T22:50:30.568Z,101272.28
2022-12-01T22:53:32.915Z,101255.25
2022-12-01T22:56:50.065Z,101257.75
2022-12-01T22:59:53.221Z,101247.63
2022-12-01T23:02:55.907Z,101263.09
2022-12-01T23:05:58.548Z,101272.91
2022-12-01T23:09:01.820Z,101277.50
2022-12-01T23:12:10.104Z,101272.72
2022-12-01T23:15:35.361Z,101275.31
2022-12-01T23:18:37.906Z,101257.78
2022-12-01T23:21:40.768Z,101272.50
2022-12-01T23:24:43.673Z,101275.03
2022-12-01T23:27:48.733Z,101273.16
2022-12-01T23:30:54.459Z,101240.69
2022-12-01T23:33:56.913Z,101238.56
2022-12-01T23:36:59.360Z,101246.38
2022-12-01T23:40:03.093Z,101264.28
2022-12-01T23:43:17.826Z,101265.75
2022-12-01T23:46:25.329Z,101260.91
2022-12-01T23:49:30.221Z,101247.25
2022-12-01T23:52:35.482Z,101268.38
2022-12-01T23:55:37.898Z,101268.91
2022-12-01T23:58:40.781Z,101259.19
